sensor_id;sensor_type;location;lat;lon;timestamp;pressure;altitude;pressure_sealevel;temperature;humidity
19831;BME280;10076;52.008;4.708;2022-09-09T00:04:32;100754.09;;;18.14;100.00
19831;BME280;10076;52.008;4.708;2022-09-09T00:07:13;100750.66;;;17.96;100.00
19831;BME280;10076;52.008;4.708;2022-09-09T00:13:11;100743.00;;;18.01;100.00
19831;BME280;10076;52.008;4.708;2022-09-09T00:18:13;100749.78;;;18.13;100.00
19831;BME280;10076;52.008;4.708;2022-09-09T00:20:44;100742.91;;;18.10;100.00
19831;BME280;10076;52.008;4.708;2022-09-09T00:23:22;100734.94;;;17.93;100.00
19831;BME280;10076;52.008;4.708;2022-09-09T00:28:46;100730.38;;;17.86;100.00
19831;BME280;10076;52.008;4.708;2022-09-09T00:31:25;100731.53;;;17.83;100.00
19831;BME280;10076;52.008;4.708;2022-09-09T00:33:53;100735.34;;;17.81;100.00
19831;BME280;10076;52.008;4.708;2022-09-09T00:36:22;100730.53;;;17.84;100.00
19831;BME280;10076;52.008;4.708;2022-09-09T00:38:57;100725.50;;;17.81;100.00
19831;BME280;10076;52.008;4.708;2022-09-09T00:44:25;100720.13;;;17.73;100.00
19831;BME280;10076;52.008;4.708;2022-09-09T00:47:12;100721.47;;;17.77;100.00
19831;BME280;10076;52.008;4.708;2022-09-09T00:52:43;100713.75;;;17.74;100.00
19831;BME280;10076;52.008;4.708;2022-09-09T00:55:25;100717.31;;;17.57;100.00
19831;BME280;10076;52.008;4.708;2022-09-09T00:57:53;100714.59;;;17.49;100.00
19831;BME280;10076;52.008;4.708;2022-09-09T01:00:31;100716.47;;;17.57;100.00
19831;BME280;10076;52.008;4.708;2022-09-09T01:03:22;100713.09;;;17.72;100.00
19831;BME280;10076;52.008;4.708;2022-09-09T01:11:25;100720.34;;;17.62;100.00
19831;BME280;10076;52.008;4.708;2022-09-09T01:17:02;100719.94;;;17.49;100.00
19831;BME280;10076;52.008;4.708;2022-09-09T01:22:50;100718.28;;;17.56;100.00
19831;BME280;10076;52.008;4.708;2022-09-09T01:25:22;100704.63;;;17.59;100.00
19831;BME280;10076;52.008;4.708;2022-09-09T01:27:55;100700.13;;;17.60;100.00
19831;BME280;10076;52.008;4.708;2022-09-09T01:30:22;100693.00;;;17.68;100.00
19831;BME280;10076;52.008;4.708;2022-09-09T01:32:54;100698.16;;;17.62;100.00
19831;BME280;10076;52.008;4.708;2022-09-09T01:37:51;100688.06;;;17.99;100.00
19831;BME280;10076;52.008;4.708;2022-09-09T01:40:17;100686.25;;;18.07;100.00
19831;BME280;10076;52.008;4.708;2022-09-09T01:42:42;100684.59;;;17.81;100.00
19831;BME280;10076;52.008;4.708;2022-09-09T01:45:08;100677.31;;;17.65;100.00
19831;BME280;10076;52.008;4.708;2022-09-09T01:47:34;100681.75;;;17.82;100.00
19831;BME280;10076;52.008;4.708;2022-09-09T01:50:01;100683.75;;;17.80;100.00
19831;BME280;10076;52.008;4.708;2022-09-09T01:52:27;100680.53;;;17.77;100.00
19831;BME280;10076;52.008;4.708;2022-09-09T01:54:53;100679.78;;;17.84;100.00
19831;BME280;10076;52.008;4.708;2022-09-09T01:57:24;100694.03;;;17.93;100.00
19831;BME280;10076;52.008;4.708;2022-09-09T02:02:40;100689.19;;;17.71;100.00
19831;BME280;10076;52.008;4.708;2022-09-09T02:05:22;100680.25;;;17.80;100.00
19831;BME280;10076;52.008;4.708;2022-09-09T02:08:00;100687.19;;;17.73;100.00
19831;BME280;10076;52.008;4.708;2022-09-09T02:10:32;100679.19;;;17.73;100.00
19831;BME280;10076;52.008;4.708;2022-09-09T02:13:28;100679.63;;;17.86;100.00
19831;BME280;10076;52.008;4.708;2022-09-09T02:18:35;100676.41;;;17.82;100.00
19831;BME280;10076;52.008;4.708;2022-09-09T02:21:03;100672.16;;;17.72;100.00
19831;BME280;10076;52.008;4.708;2022-09-09T02:23:30;100671.00;;;17.74;100.00
19831;BME280;10076;52.008;4.708;2022-09-09T02:25:58;100673.50;;;17.68;100.00
19831;BME280;10076;52.008;4.708;2022-09-09T02:28:25;100670.91;;;17.84;100.00
19831;BME280;10076;52.008;4.708;2022-09-09T02:30:53;100665.66;;;17.74;100.00
19831;BME280;10076;52.008;4.708;2022-09-09T02:33:22;100659.81;;;17.71;100.00
19831;BME280;10076;52.008;4.708;2022-09-09T02:35:51;100665.94;;;17.63;100.00
19831;BME280;10076;52.008;4.708;2022-09-09T02:38:17;100654.47;;;17.45;100.00
19831;BME280;10076;52.008;4.708;2022-09-09T02:40:43;100656.88;;;17.56;100.00
19831;BME280;10076;52.008;4.708;2022-09-09T02:43:09;100646.25;;;17.64;100.00
19831;BME280;10076;52.008;4.708;2022-09-09T02:45:44;100647.84;;;17.32;100.00
19831;BME280;10076;52.008;4.708;2022-09-09T02:48:20;100644.56;;;17.38;100.00
19831;BME280;10076;52.008;4.708;2022-09-09T02:50:55;100642.88;;;17.54;100.00
19831;BME280;10076;52.008;4.708;2022-09-09T02:53:30;100643.78;;;17.45;100.00
19831;BME280;10076;52.008;4.708;2022-09-09T02:56:16;100642.88;;;17.54;100.00
19831;BME280;10076;52.008;4.708;2022-09-09T02:58:42;100638.97;;;17.49;100.00
19831;BME280;10076;52.008;4.708;2022-09-09T03:01:07;100642.44;;;17.41;100.00
19831;BME280;10076;52.008;4.708;2022-09-09T03:03:34;100641.28;;;17.44;100.00
19831;BME280;10076;52.008;4.708;2022-09-09T03:05:59;100646.81;;;17.50;100.00
19831;BME280;10076;52.008;4.708;2022-09-09T03:08:25;100645.56;;;17.37;100.00
19831;BME280;10076;52.008;4.708;2022-09-09T03:10:51;100651.50;;;17.31;100.00
19831;BME280;10076;52.008;4.708;2022-09-09T03:13:19;100644.59;;;17.21;100.00
19831;BME280;10076;52.008;4.708;2022-09-09T03:15:44;100647.69;;;17.16;100.00
19831;BME280;10076;52.008;4.708;2022-09-09T03:18:09;100645.13;;;17.24;100.00
19831;BME280;10076;52.008;4.708;2022-09-09T03:20:35;100639.53;;;17.18;100.00
19831;BME280;10076;52.008;4.708;2022-09-09T03:23:00;100652.25;;;17.24;100.00
19831;BME280;10076;52.008;4.708;2022-09-09T03:25:26;100650.16;;;17.10;100.00
19831;BME280;10076;52.008;4.708;2022-09-09T03:27:53;100654.63;;;17.09;100.00
19831;BME280;10076;52.008;4.708;2022-09-09T03:30:20;100655.25;;;17.21;100.00
19831;BME280;10076;52.008;4.708;2022-09-09T03:32:45;100648.78;;;17.23;100.00
19831;BME280;10076;52.008;4.708;2022-09-09T03:35:10;100648.69;;;17.15;100.00
19831;BME280;10076;52.008;4.708;2022-09-09T03:37:35;100655.88;;;17.32;100.00
19831;BME280;10076;52.008;4.708;2022-09-09T03:40:01;100649.69;;;17.32;100.00
19831;BME280;10076;52.008;4.708;2022-09-09T03:42:26;100643.56;;;17.22;100.00
19831;BME280;10076;52.008;4.708;2022-09-09T03:44:52;100648.00;;;17.13;100.00
19831;BME280;10076;52.008;4.708;2022-09-09T03:47:18;100642.00;;;17.11;100.00
19831;BME280;10076;52.008;4.708;2022-09-09T03:49:44;100643.28;;;17.25;100.00
19831;BME280;10076;52.008;4.708;2022-09-09T03:52:10;100641.84;;;17.13;100.00
19831;BME280;10076;52.008;4.708;2022-09-09T03:54:35;100645.44;;;17.04;100.00
19831;BME280;10076;52.008;4.708;2022-09-09T03:57:01;100646.94;;;17.24;100.00
19831;BME280;10076;52.008;4.708;2022-09-09T03:59:27;100641.69;;;17.32;100.00
19831;BME280;10076;52.008;4.708;2022-09-09T04:01:53;100643.19;;;17.17;100.00
19831;BME280;10076;52.008;4.708;2022-09-09T04:04:20;100637.63;;;17.28;100.00
19831;BME280;10076;52.008;4.708;2022-09-09T04:06:45;100626.97;;;17.10;100.00
19831;BME280;10076;52.008;4.708;2022-09-09T04:09:11;100627.34;;;17.15;100.00
19831;BME280;10076;52.008;4.708;2022-09-09T04:11:36;100624.31;;;17.10;100.00
19831;BME280;10076;52.008;4.708;2022-09-09T04:14:02;100631.31;;;16.94;100.00
19831;BME280;10076;52.008;4.708;2022-09-09T04:16:27;100628.31;;;17.14;100.00
19831;BME280;10076;52.008;4.708;2022-09-09T04:18:53;100626.16;;;16.92;100.00
19831;BME280;10076;52.008;4.708;2022-09-09T04:21:18;100618.34;;;16.99;100.00
19831;BME280;10076;52.008;4.708;2022-09-09T04:23:43;100614.84;;;17.16;100.00
19831;BME280;10076;52.008;4.708;2022-09-09T04:26:09;100611.03;;;17.01;100.00
19831;BME280;10076;52.008;4.708;2022-09-09T04:28:35;100613.59;;;16.85;100.00
19831;BME280;10076;52.008;4.708;2022-09-09T04:31:15;100613.72;;;17.01;100.00
19831;BME280;10076;52.008;4.708;2022-09-09T04:33:42;100615.47;;;17.10;100.00
19831;BME280;10076;52.008;4.708;2022-09-09T04:36:07;100614.94;;;16.89;100.00
19831;BME280;10076;52.008;4.708;2022-09-09T04:38:33;100612.28;;;16.89;100.00
19831;BME280;10076;52.008;4.708;2022-09-09T04:40:58;100616.53;;;16.82;100.00
19831;BME280;10076;52.008;4.708;2022-09-09T04:43:24;100617.94;;;16.86;100.00
19831;BME280;10076;52.008;4.708;2022-09-09T04:45:51;100613.75;;;16.83;100.00
19831;BME280;10076;52.008;4.708;2022-09-09T04:48:17;100605.34;;;16.78;100.00
19831;BME280;10076;52.008;4.708;2022-09-09T04:50:42;100602.84;;;16.77;100.00
19831;BME280;10076;52.008;4.708;2022-09-09T04:53:07;100606.66;;;16.92;100.00
19831;BME280;10076;52.008;4.708;2022-09-09T04:55:33;100614.78;;;16.90;100.00
19831;BME280;10076;52.008;4.708;2022-09-09T04:58:08;100609.16;;;16.93;100.00
19831;BME280;10076;52.008;4.708;2022-09-09T05:00:37;100602.88;;;17.02;100.00
19831;BME280;10076;52.008;4.708;2022-09-09T05:03:06;100603.03;;;17.01;100.00
19831;BME280;10076;52.008;4.708;2022-09-09T05:05:33;100604.97;;;16.91;100.00
19831;BME280;10076;52.008;4.708;2022-09-09T05:08:06;100600.38;;;17.01;100.00
19831;BME280;10076;52.008;4.708;2022-09-09T05:10:33;100601.88;;;17.21;100.00
19831;BME280;10076;52.008;4.708;2022-09-09T05:12:58;100605.78;;;16.91;100.00
19831;BME280;10076;52.008;4.708;2022-09-09T05:15:24;100597.63;;;17.10;100.00
19831;BME280;10076;52.008;4.708;2022-09-09T05:17:49;100596.19;;;17.16;100.00
19831;BME280;10076;52.008;4.708;2022-09-09T05:20:14;100593.97;;;17.11;100.00
19831;BME280;10076;52.008;4.708;2022-09-09T05:22:40;100600.38;;;17.18;100.00
19831;BME280;10076;52.008;4.708;2022-09-09T05:25:06;100593.44;;;17.08;100.00
19831;BME280;10076;52.008;4.708;2022-09-09T05:27:33;100608.28;;;17.28;100.00
19831;BME280;10076;52.008;4.708;2022-09-09T05:29:59;100600.13;;;17.12;100.00
19831;BME280;10076;52.008;4.708;2022-09-09T05:32:24;100598.78;;;17.08;100.00
19831;BME280;10076;52.008;4.708;2022-09-09T05:34:49;100595.78;;;17.11;100.00
19831;BME280;10076;52.008;4.708;2022-09-09T05:37:15;100585.28;;;17.09;100.00
19831;BME280;10076;52.008;4.708;2022-09-09T05:39:41;100598.44;;;17.11;100.00
19831;BME280;10076;52.008;4.708;2022-09-09T05:42:07;100588.63;;;17.29;100.00
19831;BME280;10076;52.008;4.708;2022-09-09T05:44:32;100594.09;;;17.52;100.00
19831;BME280;10076;52.008;4.708;2022-09-09T05:46:57;100603.59;;;17.47;100.00
19831;BME280;10076;52.008;4.708;2022-09-09T05:49:23;100595.84;;;17.61;100.00
19831;BME280;10076;52.008;4.708;2022-09-09T05:51:48;100601.56;;;17.74;100.00
19831;BME280;10076;52.008;4.708;2022-09-09T05:54:15;100597.19;;;17.99;100.00
19831;BME280;10076;52.008;4.708;2022-09-09T05:56:41;100611.63;;;18.13;100.00
19831;BME280;10076;52.008;4.708;2022-09-09T05:59:06;100608.84;;;18.23;100.00
19831;BME280;10076;52.008;4.708;2022-09-09T06:01:34;100604.19;;;18.25;100.00
19831;BME280;10076;52.008;4.708;2022-09-09T06:04:00;100602.16;;;18.27;100.00
19831;BME280;10076;52.008;4.708;2022-09-09T06:06:29;100601.69;;;18.31;100.00
19831;BME280;10076;52.008;4.708;2022-09-09T06:08:57;100592.47;;;18.26;100.00
19831;BME280;10076;52.008;4.708;2022-09-09T06:11:28;100596.06;;;18.50;100.00
19831;BME280;10076;52.008;4.708;2022-09-09T06:13:58;100605.56;;;18.45;100.00
19831;BME280;10076;52.008;4.708;2022-09-09T06:16:25;100596.56;;;18.54;100.00
19831;BME280;10076;52.008;4.708;2022-09-09T06:18:52;100596.56;;;18.54;100.00
19831;BME280;10076;52.008;4.708;2022-09-09T06:21:24;100593.91;;;18.54;100.00
19831;BME280;10076;52.008;4.708;2022-09-09T06:23:50;100602.56;;;18.48;100.00
19831;BME280;10076;52.008;4.708;2022-09-09T06:26:23;100597.22;;;18.48;100.00
19831;BME280;10076;52.008;4.708;2022-09-09T06:28:50;100598.59;;;18.60;100.00
19831;BME280;10076;52.008;4.708;2022-09-09T06:31:18;100603.19;;;18.34;100.00
19831;BME280;10076;52.008;4.708;2022-09-09T06:33:47;100606.56;;;18.36;100.00
19831;BME280;10076;52.008;4.708;2022-09-09T06:36:21;100589.44;;;18.21;100.00
19831;BME280;10076;52.008;4.708;2022-09-09T06:38:47;100607.84;;;18.32;100.00
19831;BME280;10076;52.008;4.708;2022-09-09T06:41:15;100604.03;;;18.34;100.00
19831;BME280;10076;52.008;4.708;2022-09-09T06:43:40;100608.44;;;18.75;100.00
19831;BME280;10076;52.008;4.708;2022-09-09T06:46:09;100610.31;;;18.82;100.00
19831;BME280;10076;52.008;4.708;2022-09-09T06:48:35;100602.63;;;18.79;100.00
19831;BME280;10076;52.008;4.708;2022-09-09T06:53:30;100602.78;;;18.78;100.00
19831;BME280;10076;52.008;4.708;2022-09-09T06:55:58;100607.66;;;18.82;100.00
19831;BME280;10076;52.008;4.708;2022-09-09T06:58:24;100603.63;;;19.02;100.00
19831;BME280;10076;52.008;4.708;2022-09-09T07:00:49;100603.97;;;19.07;100.00
19831;BME280;10076;52.008;4.708;2022-09-09T07:03:14;100607.47;;;18.84;100.00
19831;BME280;10076;52.008;4.708;2022-09-09T07:05:40;100603.97;;;18.99;100.00
19831;BME280;10076;52.008;4.708;2022-09-09T07:08:05;100594.09;;;19.00;100.00
19831;BME280;10076;52.008;4.708;2022-09-09T07:10:31;100610.00;;;18.93;100.00
19831;BME280;10076;52.008;4.708;2022-09-09T07:12:56;100598.66;;;19.15;100.00
19831;BME280;10076;52.008;4.708;2022-09-09T07:15:21;100603.00;;;19.08;100.00
19831;BME280;10076;52.008;4.708;2022-09-09T07:17:48;100599.31;;;19.17;100.00
19831;BME280;10076;52.008;4.708;2022-09-09T07:20:14;100596.97;;;19.22;100.00
19831;BME280;10076;52.008;4.708;2022-09-09T07:22:40;100601.47;;;19.38;100.00
19831;BME280;10076;52.008;4.708;2022-09-09T07:25:06;100599.63;;;19.38;100.00
19831;BME280;10076;52.008;4.708;2022-09-09T07:27:32;100586.75;;;19.49;100.00
19831;BME280;10076;52.008;4.708;2022-09-09T07:29:57;100598.28;;;19.58;100.00
19831;BME280;10076;52.008;4.708;2022-09-09T07:32:22;100592.50;;;19.77;100.00
19831;BME280;10076;52.008;4.708;2022-09-09T07:34:48;100593.31;;;19.93;100.00
19831;BME280;10076;52.008;4.708;2022-09-09T07:37:15;100602.38;;;19.84;100.00
19831;BME280;10076;52.008;4.708;2022-09-09T07:39:41;100606.88;;;19.84;100.00
19831;BME280;10076;52.008;4.708;2022-09-09T07:42:08;100608.44;;;19.78;100.00
19831;BME280;10076;52.008;4.708;2022-09-09T07:44:35;100593.16;;;19.87;100.00
19831;BME280;10076;52.008;4.708;2022-09-09T07:47:01;100608.06;;;19.81;100.00
19831;BME280;10076;52.008;4.708;2022-09-09T07:49:27;100609.06;;;19.88;100.00
19831;BME280;10076;52.008;4.708;2022-09-09T07:51:52;100603.72;;;19.80;100.00
19831;BME280;10076;52.008;4.708;2022-09-09T07:54:19;100606.44;;;19.56;100.00
19831;BME280;10076;52.008;4.708;2022-09-09T07:56:46;100602.81;;;19.42;100.00
19831;BME280;10076;52.008;4.708;2022-09-09T07:59:12;100604.13;;;19.45;100.00
19831;BME280;10076;52.008;4.708;2022-09-09T08:01:44;100599.63;;;19.38;100.00
19831;BME280;10076;52.008;4.708;2022-09-09T08:04:13;100602.97;;;19.32;100.00
19831;BME280;10076;52.008;4.708;2022-09-09T08:06:43;100601.47;;;19.38;100.00
19831;BME280;10076;52.008;4.708;2022-09-09T08:09:10;100616.38;;;19.24;100.00
19831;BME280;10076;52.008;4.708;2022-09-09T08:11:37;100608.69;;;19.29;100.00
19831;BME280;10076;52.008;4.708;2022-09-09T08:14:03;100614.38;;;19.26;100.00
19831;BME280;10076;52.008;4.708;2022-09-09T08:16:31;100607.84;;;19.37;100.00
19831;BME280;10076;52.008;4.708;2022-09-09T08:18:58;100617.03;;;19.26;100.00
19831;BME280;10076;52.008;4.708;2022-09-09T08:21:25;100609.38;;;19.23;100.00
19831;BME280;10076;52.008;4.708;2022-09-09T08:23:54;100613.88;;;19.23;100.00
19831;BME280;10076;52.008;4.708;2022-09-09T08:26:21;100615.69;;;19.06;100.00
19831;BME280;10076;52.008;4.708;2022-09-09T08:28:52;100614.03;;;19.21;100.00
19831;BME280;10076;52.008;4.708;2022-09-09T08:33:48;100618.03;;;19.25;100.00
19831;BME280;10076;52.008;4.708;2022-09-09T08:36:15;100621.72;;;19.40;100.00
19831;BME280;10076;52.008;4.708;2022-09-09T08:38:42;100619.22;;;19.31;100.00
19831;BME280;10076;52.008;4.708;2022-09-09T08:43:50;100623.06;;;19.44;100.00
19831;BME280;10076;52.008;4.708;2022-09-09T08:46:25;100619.06;;;19.40;100.00
19831;BME280;10076;52.008;4.708;2022-09-09T08:49:02;100617.91;;;19.19;100.00
19831;BME280;10076;52.008;4.708;2022-09-09T08:51:32;100641.81;;;19.44;100.00
19831;BME280;10076;52.008;4.708;2022-09-09T08:54:00;100631.44;;;19.25;100.00
19831;BME280;10076;52.008;4.708;2022-09-09T08:56:27;100624.06;;;19.19;100.00
19831;BME280;10076;52.008;4.708;2022-09-09T08:58:55;100621.91;;;19.23;100.00
19831;BME280;10076;52.008;4.708;2022-09-09T09:07:03;100629.09;;;19.14;100.00
19831;BME280;10076;52.008;4.708;2022-09-09T09:12:32;100633.53;;;18.66;100.00
19831;BME280;10076;52.008;4.708;2022-09-09T09:15:00;100635.00;;;18.61;100.00
19831;BME280;10076;52.008;4.708;2022-09-09T09:17:27;100635.88;;;18.61;100.00
19831;BME280;10076;52.008;4.708;2022-09-09T09:19:56;100642.03;;;18.62;100.00
19831;BME280;10076;52.008;4.708;2022-09-09T09:22:44;100639.19;;;18.63;100.00
19831;BME280;10076;52.008;4.708;2022-09-09T09:25:18;100648.28;;;18.78;100.00
19831;BME280;10076;52.008;4.708;2022-09-09T09:28:10;100642.44;;;18.82;100.00
19831;BME280;10076;52.008;4.708;2022-09-09T09:30:45;100648.94;;;18.80;100.00
19831;BME280;10076;52.008;4.708;2022-09-09T09:36:14;100640.38;;;18.69;100.00
19831;BME280;10076;52.008;4.708;2022-09-09T09:38:52;100644.06;;;18.68;100.00
19831;BME280;10076;52.008;4.708;2022-09-09T09:41:38;100643.06;;;18.69;100.00
19831;BME280;10076;52.008;4.708;2022-09-09T09:44:04;100637.03;;;18.59;100.00
19831;BME280;10076;52.008;4.708;2022-09-09T09:46:32;100638.06;;;18.66;100.00
19831;BME280;10076;52.008;4.708;2022-09-09T09:49:02;100630.84;;;18.66;100.00
19831;BME280;10076;52.008;4.708;2022-09-09T09:51:30;100623.66;;;18.59;100.00
19831;BME280;10076;52.008;4.708;2022-09-09T09:54:14;100629.72;;;18.84;100.00
19831;BME280;10076;52.008;4.708;2022-09-09T09:56:44;100627.41;;;19.05;100.00
19831;BME280;10076;52.008;4.708;2022-09-09T10:01:53;100625.59;;;20.08;100.00
19831;BME280;10076;52.008;4.708;2022-09-09T10:04:21;100617.06;;;21.17;100.00
19831;BME280;10076;52.008;4.708;2022-09-09T10:06:48;100615.28;;;21.83;100.00
19831;BME280;10076;52.008;4.708;2022-09-09T10:09:28;100608.28;;;21.60;100.00
19831;BME280;10076;52.008;4.708;2022-09-09T10:22:35;100604.44;;;20.81;100.00
19831;BME280;10076;52.008;4.708;2022-09-09T10:33:35;100623.81;;;20.61;100.00
19831;BME280;10076;52.008;4.708;2022-09-09T10:36:12;100618.81;;;20.58;100.00
19831;BME280;10076;52.008;4.708;2022-09-09T10:38:40;100618.66;;;20.51;100.00
19831;BME280;10076;52.008;4.708;2022-09-09T10:44:19;100628.78;;;20.41;100.00
19831;BME280;10076;52.008;4.708;2022-09-09T10:49:57;100626.97;;;19.96;100.00
19831;BME280;10076;52.008;4.708;2022-09-09T10:55:20;100624.13;;;19.97;100.00
19831;BME280;10076;52.008;4.708;2022-09-09T10:57:51;100630.97;;;20.08;100.00
19831;BME280;10076;52.008;4.708;2022-09-09T11:00:41;100617.88;;;20.05;100.00
19831;BME280;10076;52.008;4.708;2022-09-09T11:03:25;100626.97;;;19.96;100.00
19831;BME280;10076;52.008;4.708;2022-09-09T11:05:58;100632.97;;;20.06;100.00
19831;BME280;10076;52.008;4.708;2022-09-09T11:08:26;100619.94;;;19.95;100.00
19831;BME280;10076;52.008;4.708;2022-09-09T11:11:14;100638.50;;;20.12;100.00
19831;BME280;10076;52.008;4.708;2022-09-09T11:13:51;100623.78;;;20.38;100.00
19831;BME280;10076;52.008;4.708;2022-09-09T11:19:12;100618.84;;;20.80;100.00
19831;BME280;10076;52.008;4.708;2022-09-09T11:21:46;100606.06;;;21.27;100.00
19831;BME280;10076;52.008;4.708;2022-09-09T11:24:23;100603.66;;;21.68;100.00
19831;BME280;10076;52.008;4.708;2022-09-09T11:27:01;100618.50;;;22.08;100.00
19831;BME280;10076;52.008;4.708;2022-09-09T11:30:12;100616.63;;;21.65;100.00
19831;BME280;10076;52.008;4.708;2022-09-09T11:32:44;100631.22;;;21.48;100.00
19831;BME280;10076;52.008;4.708;2022-09-09T11:35:30;100615.34;;;21.61;100.00
19831;BME280;10076;52.008;4.708;2022-09-09T11:40:28;100613.84;;;21.22;100.00
19831;BME280;10076;52.008;4.708;2022-09-09T11:43:12;100613.03;;;21.36;100.00
19831;BME280;10076;52.008;4.708;2022-09-09T11:45:42;100614.22;;;21.70;100.00
19831;BME280;10076;52.008;4.708;2022-09-09T11:48:25;100613.41;;;21.69;100.00
19831;BME280;10076;52.008;4.708;2022-09-09T11:51:02;100603.22;;;21.28;100.00
19831;BME280;10076;52.008;4.708;2022-09-09T11:53:28;100624.63;;;20.99;100.00
19831;BME280;10076;52.008;4.708;2022-09-09T11:56:09;100617.03;;;20.73;100.00
19831;BME280;10076;52.008;4.708;2022-09-09T11:58:41;100636.91;;;20.33;100.00
19831;BME280;10076;52.008;4.708;2022-09-09T12:01:16;100625.84;;;20.28;100.00
19831;BME280;10076;52.008;4.708;2022-09-09T12:03:59;100618.66;;;20.21;100.00
19831;BME280;10076;52.008;4.708;2022-09-09T12:06:31;100619.94;;;19.95;100.00
19831;BME280;10076;52.008;4.708;2022-09-09T12:09:19;100623.16;;;19.82;100.00
19831;BME280;10076;52.008;4.708;2022-09-09T12:11:48;100625.63;;;19.92;100.00
19831;BME280;10076;52.008;4.708;2022-09-09T12:14:37;100627.63;;;20.06;100.00
19831;BME280;10076;52.008;4.708;2022-09-09T12:17:22;100624.78;;;20.07;100.00
19831;BME280;10076;52.008;4.708;2022-09-09T12:20:00;100614.25;;;19.98;100.00
19831;BME280;10076;52.008;4.708;2022-09-09T12:22:41;100613.94;;;19.93;100.00
19831;BME280;10076;52.008;4.708;2022-09-09T12:28:20;100623.50;;;19.71;100.00
19831;BME280;10076;52.008;4.708;2022-09-09T12:31:32;100625.88;;;19.66;100.00
19831;BME280;10076;52.008;4.708;2022-09-09T12:34:11;100618.72;;;19.35;100.00
19831;BME280;10076;52.008;4.708;2022-09-09T12:36:39;100623.91;;;19.37;100.00
19831;BME280;10076;52.008;4.708;2022-09-09T12:39:29;100619.41;;;19.21;100.00
19831;BME280;10076;52.008;4.708;2022-09-09T12:41:56;100635.09;;;19.24;100.00
19831;BME280;10076;52.008;4.708;2022-09-09T12:44:23;100655.34;;;19.11;100.00
19831;BME280;10076;52.008;4.708;2022-09-09T12:46:50;100642.09;;;19.01;100.00
19831;BME280;10076;52.008;4.708;2022-09-09T12:51:56;100662.84;;;18.99;100.00
19831;BME280;10076;52.008;4.708;2022-09-09T12:54:22;100657.84;;;19.04;100.00
19831;BME280;10076;52.008;4.708;2022-09-09T12:56:48;100681.06;;;19.04;100.00
19831;BME280;10076;52.008;4.708;2022-09-09T12:59:25;100654.28;;;18.88;100.00
19831;BME280;10076;52.008;4.708;2022-09-09T13:01:58;100642.44;;;18.82;100.00
19831;BME280;10076;52.008;4.708;2022-09-09T13:04:23;100650.13;;;18.85;100.00
19831;BME280;10076;52.008;4.708;2022-09-09T13:06:49;100651.44;;;18.89;100.00
19831;BME280;10076;52.008;4.708;2022-09-09T13:09:14;100645.00;;;19.08;100.00
19831;BME280;10076;52.008;4.708;2022-09-09T13:11:49;100650.81;;;19.03;100.00
19831;BME280;10076;52.008;4.708;2022-09-09T13:14:26;100647.44;;;19.01;100.00
19831;BME280;10076;52.008;4.708;2022-09-09T13:16:59;100639.09;;;19.04;100.00
19831;BME280;10076;52.008;4.708;2022-09-09T13:19:25;100642.78;;;19.03;100.00
19831;BME280;10076;52.008;4.708;2022-09-09T13:21:54;100634.72;;;18.95;100.00
19831;BME280;10076;52.008;4.708;2022-09-09T13:24:32;100651.44;;;18.89;100.00
19831;BME280;10076;52.008;4.708;2022-09-09T13:27:00;100653.75;;;18.69;100.00
19831;BME280;10076;52.008;4.708;2022-09-09T13:29:30;100652.44;;;18.80;100.00
19831;BME280;10076;52.008;4.708;2022-09-09T13:32:18;100670.38;;;18.96;100.00
19831;BME280;10076;52.008;4.708;2022-09-09T13:35:00;100670.19;;;18.97;100.00
19831;BME280;10076;52.008;4.708;2022-09-09T13:37:36;100668.41;;;19.22;100.00
19831;BME280;10076;52.008;4.708;2022-09-09T13:40:14;100667.03;;;19.81;100.00
19831;BME280;10076;52.008;4.708;2022-09-09T13:42:42;100658.41;;;20.56;100.00
19831;BME280;10076;52.008;4.708;2022-09-09T13:45:27;100657.41;;;20.49;100.00
19831;BME280;10076;52.008;4.708;2022-09-09T13:47:54;100649.81;;;20.60;100.00
19831;BME280;10076;52.008;4.708;2022-09-09T13:50:28;100653.44;;;20.75;100.00
19831;BME280;10076;52.008;4.708;2022-09-09T13:52:56;100649.50;;;20.93;100.00
19831;BME280;10076;52.008;4.708;2022-09-09T13:55:24;100648.16;;;20.59;100.00
19831;BME280;10076;52.008;4.708;2022-09-09T13:57:54;100653.09;;;20.78;100.00
19831;BME280;10076;52.008;4.708;2022-09-09T14:00:20;100654.78;;;20.79;100.00
19831;BME280;10076;52.008;4.708;2022-09-09T14:02:46;100644.31;;;20.54;100.00
19831;BME280;10076;52.008;4.708;2022-09-09T14:05:12;100648.25;;;20.43;100.00
19831;BME280;10076;52.008;4.708;2022-09-09T14:07:39;100651.72;;;20.13;100.00
19831;BME280;10076;52.008;4.708;2022-09-09T14:10:06;100640.78;;;19.53;100.00
19831;BME280;10076;52.008;4.708;2022-09-09T14:12:31;100645.16;;;19.30;100.00
19831;BME280;10076;52.008;4.708;2022-09-09T14:14:58;100650.19;;;19.09;100.00
19831;BME280;10076;52.008;4.708;2022-09-09T14:17:25;100656.34;;;19.02;100.00
19831;BME280;10076;52.008;4.708;2022-09-09T14:19:54;100660.50;;;18.88;100.00
19831;BME280;10076;52.008;4.708;2022-09-09T14:22:20;100660.97;;;18.76;100.00
19831;BME280;10076;52.008;4.708;2022-09-09T14:24:45;100658.81;;;18.87;100.00
19831;BME280;10076;52.008;4.708;2022-09-09T14:27:11;100653.13;;;18.90;100.00
19831;BME280;10076;52.008;4.708;2022-09-09T14:29:36;100655.63;;;18.92;100.00
19831;BME280;10076;52.008;4.708;2022-09-09T14:32:01;100647.25;;;18.87;100.00
19831;BME280;10076;52.008;4.708;2022-09-09T14:34:27;100661.50;;;18.87;100.00